Aeroporto :
LOGIN :

Iscrizione | Disclaimer

   EN    FR    IT 

 










Sommario :    VFR   VFR Marginale   IFR   IFR Intensivo   IFR Molto Intensivo
Visibilità : 
Base nubi : 
>= 8 km
>= 3000ft
5 / 8 km
1000 / 3000 ft
1500m / 5 km
500 / 1000 ft
800 / 1500m
200 / 500 ft
< 800m
< 200 ft
Simboli :   Temporali  Nebbia  Neve Forte  Precipitazioni Forti  Vento > 20 kt
SIGMETs :   Varie  Temporali  Ghiacco  Turbolenza  Onda orograficha  Ceneri Vulcaniche






- Altitudine del aeroporto : 13 ft
- Codice IATA : SNR


LFRZ - St-Nazaire

ULTIMO METAR :
  • 231800Z AUTO 24013KT 6000 -RADZ OVC006 12/11 Q1029 TEMPO 1200 DZ OVC001

METARs OBSOLETI :
  • 231730Z AUTO 24014KT 9999 BKN007 OVC017 12/11 Q1029 TEMPO 1200 DZ OVC001
  • 231700Z AUTO 24013KT 9999 OVC006 12/11 Q1029 TEMPO 1200 DZ OVC001
  • 231630Z AUTO 25014KT 7000 OVC005 12/12 Q1029 TEMPO 1200 DZ OVC001
  • 231600Z AUTO 25014KT 7000 OVC005 12/11 Q1029 TEMPO 1200 DZ OVC001
  • 231530Z AUTO 25017KT 7000 2700 OVC007 12/11 Q1029 TEMPO 1200 DZ OVC001

TAF TAF LFRZ
Valido dal 23 a 18 ore il 24 a 18 ore UTC


231700Z 2318/2418 24012KT 9000 OVC010
TEMPO 2318/2412 3000 DZ OVC004
TEMPO 2318/2408 1200 DZ OVC001
BECMG 2412/2414 23015G25KT



MetMap, La meteo Aeronautica in un colpo d'occhio ! - Copyright ORBIFLY Dicembre 2007 - Disclaimer

ORBIFLY MET'MAP TEAM :

Programmazione e sviluppo : Alexandra Zaïnal
Concezione : Baudouin d'Aumeries
Aiuto per la programmazione : Marc-Olivier Méhu
Supporto tecnico e logistico : Manuel Goepfert
Aiuto per la traduzione : Arnaldo La Scala

Contatto : metmap@orbifly.com




FONTI E CREDITI :

   NOAA